sensor_id;sensor_type;location;lat;lon;timestamp;P1;durP1;ratioP1;P2;durP2;ratioP2
49175;SDS011;35012;47.200;9.748;2023-04-03T00:00:59;2.23;;;2.10;;
49175;SDS011;35012;47.200;9.748;2023-04-03T00:03:25;2.53;;;1.97;;
49175;SDS011;35012;47.200;9.748;2023-04-03T00:05:50;3.07;;;2.10;;
49175;SDS011;35012;47.200;9.748;2023-04-03T00:08:16;2.13;;;1.93;;
49175;SDS011;35012;47.200;9.748;2023-04-03T00:10:41;2.30;;;2.10;;
49175;SDS011;35012;47.200;9.748;2023-04-03T00:13:07;2.17;;;1.97;;
49175;SDS011;35012;47.200;9.748;2023-04-03T00:15:33;3.20;;;1.60;;
49175;SDS011;35012;47.200;9.748;2023-04-03T00:17:59;1.50;;;1.40;;
49175;SDS011;35012;47.200;9.748;2023-04-03T00:20:25;1.40;;;1.30;;
49175;SDS011;35012;47.200;9.748;2023-04-03T00:22:51;1.70;;;1.60;;
49175;SDS011;35012;47.200;9.748;2023-04-03T00:25:16;1.20;;;1.10;;
49175;SDS011;35012;47.200;9.748;2023-04-03T00:27:42;1.87;;;1.27;;
49175;SDS011;35012;47.200;9.748;2023-04-03T00:30:09;1.30;;;1.20;;
49175;SDS011;35012;47.200;9.748;2023-04-03T00:32:36;1.30;;;1.20;;
49175;SDS011;35012;47.200;9.748;2023-04-03T00:35:02;1.20;;;1.10;;
49175;SDS011;35012;47.200;9.748;2023-04-03T00:37:28;1.27;;;1.17;;
49175;SDS011;35012;47.200;9.748;2023-04-03T00:39:53;1.50;;;1.40;;
49175;SDS011;35012;47.200;9.748;2023-04-03T00:42:19;1.10;;;1.00;;
49175;SDS011;35012;47.200;9.748;2023-04-03T00:47:11;1.20;;;1.10;;
49175;SDS011;35012;47.200;9.748;2023-04-03T00:49:37;1.00;;;0.93;;
49175;SDS011;35012;47.200;9.748;2023-04-03T00:52:03;1.73;;;1.00;;
49175;SDS011;35012;47.200;9.748;2023-04-03T00:54:31;1.00;;;0.90;;
49175;SDS011;35012;47.200;9.748;2023-04-03T00:56:57;0.90;;;0.90;;
49175;SDS011;35012;47.200;9.748;2023-04-03T00:59:24;1.33;;;1.00;;
49175;SDS011;35012;47.200;9.748;2023-04-03T01:01:52;1.23;;;0.90;;
49175;SDS011;35012;47.200;9.748;2023-04-03T01:06:56;1.30;;;1.20;;
49175;SDS011;35012;47.200;9.748;2023-04-03T01:09:25;1.10;;;1.00;;
49175;SDS011;35012;47.200;9.748;2023-04-03T01:11:51;1.07;;;0.97;;
49175;SDS011;35012;47.200;9.748;2023-04-03T01:14:16;1.20;;;1.10;;
49175;SDS011;35012;47.200;9.748;2023-04-03T01:16:42;0.93;;;0.90;;
49175;SDS011;35012;47.200;9.748;2023-04-03T01:19:08;1.17;;;1.07;;
49175;SDS011;35012;47.200;9.748;2023-04-03T01:26:43;1.20;;;1.10;;
49175;SDS011;35012;47.200;9.748;2023-04-03T01:29:08;1.23;;;1.13;;
49175;SDS011;35012;47.200;9.748;2023-04-03T01:33:59;1.20;;;1.10;;
49175;SDS011;35012;47.200;9.748;2023-04-03T01:36:27;1.87;;;1.20;;
49175;SDS011;35012;47.200;9.748;2023-04-03T01:38:54;1.43;;;1.33;;
49175;SDS011;35012;47.200;9.748;2023-04-03T01:41:21;1.30;;;1.20;;
49175;SDS011;35012;47.200;9.748;2023-04-03T01:43:47;1.60;;;1.30;;
49175;SDS011;35012;47.200;9.748;2023-04-03T01:46:13;1.30;;;1.20;;
49175;SDS011;35012;47.200;9.748;2023-04-03T01:48:40;1.50;;;1.40;;
49175;SDS011;35012;47.200;9.748;2023-04-03T01:51:06;1.53;;;1.43;;
49175;SDS011;35012;47.200;9.748;2023-04-03T01:53:31;1.70;;;1.60;;
49175;SDS011;35012;47.200;9.748;2023-04-03T01:55:57;1.73;;;1.63;;
49175;SDS011;35012;47.200;9.748;2023-04-03T01:58:22;1.47;;;1.37;;
49175;SDS011;35012;47.200;9.748;2023-04-03T02:00:48;1.70;;;1.60;;
49175;SDS011;35012;47.200;9.748;2023-04-03T02:03:13;1.70;;;1.60;;
49175;SDS011;35012;47.200;9.748;2023-04-03T02:05:39;1.60;;;1.50;;
49175;SDS011;35012;47.200;9.748;2023-04-03T02:08:05;1.70;;;1.60;;
49175;SDS011;35012;47.200;9.748;2023-04-03T02:10:30;3.20;;;1.70;;
49175;SDS011;35012;47.200;9.748;2023-04-03T02:12:56;1.60;;;1.50;;
49175;SDS011;35012;47.200;9.748;2023-04-03T02:15:21;1.70;;;1.60;;
49175;SDS011;35012;47.200;9.748;2023-04-03T02:17:47;1.80;;;1.70;;
49175;SDS011;35012;47.200;9.748;2023-04-03T02:20:12;1.73;;;1.63;;
49175;SDS011;35012;47.200;9.748;2023-04-03T02:22:38;1.57;;;1.47;;
49175;SDS011;35012;47.200;9.748;2023-04-03T02:25:03;2.10;;;1.90;;
49175;SDS011;35012;47.200;9.748;2023-04-03T02:27:29;2.40;;;1.80;;
49175;SDS011;35012;47.200;9.748;2023-04-03T02:29:56;2.17;;;1.97;;
49175;SDS011;35012;47.200;9.748;2023-04-03T02:32:22;2.00;;;1.90;;
49175;SDS011;35012;47.200;9.748;2023-04-03T02:34:48;1.80;;;1.70;;
49175;SDS011;35012;47.200;9.748;2023-04-03T02:37:13;2.20;;;2.00;;
49175;SDS011;35012;47.200;9.748;2023-04-03T02:39:39;2.47;;;1.90;;
49175;SDS011;35012;47.200;9.748;2023-04-03T02:42:05;2.10;;;1.90;;
49175;SDS011;35012;47.200;9.748;2023-04-03T02:44:30;3.20;;;1.80;;
49175;SDS011;35012;47.200;9.748;2023-04-03T02:46:56;2.37;;;2.17;;
49175;SDS011;35012;47.200;9.748;2023-04-03T02:49:21;3.10;;;2.40;;
49175;SDS011;35012;47.200;9.748;2023-04-03T02:51:47;2.30;;;2.10;;
49175;SDS011;35012;47.200;9.748;2023-04-03T02:54:12;3.17;;;2.43;;
49175;SDS011;35012;47.200;9.748;2023-04-03T02:56:38;3.63;;;2.50;;
49175;SDS011;35012;47.200;9.748;2023-04-03T02:59:04;2.63;;;2.40;;
49175;SDS011;35012;47.200;9.748;2023-04-03T03:01:30;2.60;;;2.40;;
49175;SDS011;35012;47.200;9.748;2023-04-03T03:03:57;3.20;;;2.90;;
49175;SDS011;35012;47.200;9.748;2023-04-03T03:06:24;3.23;;;2.60;;
49175;SDS011;35012;47.200;9.748;2023-04-03T03:08:49;3.90;;;2.77;;
49175;SDS011;35012;47.200;9.748;2023-04-03T03:11:15;3.13;;;2.83;;
49175;SDS011;35012;47.200;9.748;2023-04-03T03:13:40;3.07;;;2.83;;
49175;SDS011;35012;47.200;9.748;2023-04-03T03:16:06;3.50;;;3.20;;
49175;SDS011;35012;47.200;9.748;2023-04-03T03:18:31;3.80;;;3.50;;
49175;SDS011;35012;47.200;9.748;2023-04-03T03:20:58;3.97;;;3.67;;
49175;SDS011;35012;47.200;9.748;2023-04-03T03:23:25;3.43;;;3.13;;
49175;SDS011;35012;47.200;9.748;2023-04-03T03:26:06;3.87;;;3.57;;
49175;SDS011;35012;47.200;9.748;2023-04-03T03:28:34;4.23;;;3.83;;
49175;SDS011;35012;47.200;9.748;2023-04-03T03:31:00;4.57;;;3.83;;
49175;SDS011;35012;47.200;9.748;2023-04-03T03:33:26;4.30;;;3.90;;
49175;SDS011;35012;47.200;9.748;2023-04-03T03:35:52;4.73;;;4.30;;
49175;SDS011;35012;47.200;9.748;2023-04-03T03:38:18;4.50;;;4.10;;
49175;SDS011;35012;47.200;9.748;2023-04-03T03:40:43;4.60;;;4.10;;
49175;SDS011;35012;47.200;9.748;2023-04-03T03:43:09;4.67;;;4.27;;
49175;SDS011;35012;47.200;9.748;2023-04-03T03:45:35;4.80;;;4.40;;
49175;SDS011;35012;47.200;9.748;2023-04-03T03:48:00;4.70;;;4.30;;
49175;SDS011;35012;47.200;9.748;2023-04-03T03:50:26;5.00;;;4.50;;
49175;SDS011;35012;47.200;9.748;2023-04-03T03:52:52;5.67;;;5.03;;
49175;SDS011;35012;47.200;9.748;2023-04-03T03:55:17;5.10;;;4.57;;
49175;SDS011;35012;47.200;9.748;2023-04-03T03:57:43;4.93;;;4.50;;
49175;SDS011;35012;47.200;9.748;2023-04-03T04:00:09;5.90;;;5.27;;
49175;SDS011;35012;47.200;9.748;2023-04-03T04:02:35;6.43;;;5.20;;
49175;SDS011;35012;47.200;9.748;2023-04-03T04:05:00;5.87;;;4.70;;
49175;SDS011;35012;47.200;9.748;2023-04-03T04:07:26;5.83;;;5.33;;
49175;SDS011;35012;47.200;9.748;2023-04-03T04:09:53;5.60;;;5.10;;
49175;SDS011;35012;47.200;9.748;2023-04-03T04:12:18;6.63;;;5.50;;
49175;SDS011;35012;47.200;9.748;2023-04-03T04:14:44;6.60;;;5.40;;
49175;SDS011;35012;47.200;9.748;2023-04-03T04:17:11;6.20;;;5.60;;
49175;SDS011;35012;47.200;9.748;2023-04-03T04:19:37;5.97;;;5.37;;
49175;SDS011;35012;47.200;9.748;2023-04-03T04:22:03;6.10;;;5.50;;
49175;SDS011;35012;47.200;9.748;2023-04-03T04:24:29;6.13;;;5.53;;
49175;SDS011;35012;47.200;9.748;2023-04-03T04:26:54;6.40;;;5.80;;
49175;SDS011;35012;47.200;9.748;2023-04-03T04:29:20;7.40;;;6.67;;
49175;SDS011;35012;47.200;9.748;2023-04-03T04:31:45;6.77;;;5.90;;
49175;SDS011;35012;47.200;9.748;2023-04-03T04:34:11;7.30;;;6.60;;
49175;SDS011;35012;47.200;9.748;2023-04-03T04:36:38;7.70;;;6.47;;
49175;SDS011;35012;47.200;9.748;2023-04-03T04:39:04;6.57;;;5.83;;
49175;SDS011;35012;47.200;9.748;2023-04-03T04:41:30;16.23;;;14.57;;
49175;SDS011;35012;47.200;9.748;2023-04-03T04:43:56;8.47;;;7.60;;
49175;SDS011;35012;47.200;9.748;2023-04-03T04:46:21;7.57;;;6.83;;
49175;SDS011;35012;47.200;9.748;2023-04-03T04:48:47;7.27;;;6.20;;
49175;SDS011;35012;47.200;9.748;2023-04-03T04:51:13;7.13;;;6.43;;
49175;SDS011;35012;47.200;9.748;2023-04-03T04:53:39;8.03;;;7.23;;
49175;SDS011;35012;47.200;9.748;2023-04-03T04:56:05;7.60;;;6.90;;
49175;SDS011;35012;47.200;9.748;2023-04-03T04:58:31;6.80;;;6.10;;
49175;SDS011;35012;47.200;9.748;2023-04-03T05:01:00;7.37;;;6.67;;
49175;SDS011;35012;47.200;9.748;2023-04-03T05:03:29;8.27;;;6.60;;
49175;SDS011;35012;47.200;9.748;2023-04-03T05:05:55;8.07;;;7.20;;
49175;SDS011;35012;47.200;9.748;2023-04-03T05:08:21;7.30;;;6.60;;
49175;SDS011;35012;47.200;9.748;2023-04-03T05:10:46;7.27;;;6.40;;
49175;SDS011;35012;47.200;9.748;2023-04-03T05:13:12;7.80;;;7.00;;
49175;SDS011;35012;47.200;9.748;2023-04-03T05:15:38;7.40;;;6.70;;
49175;SDS011;35012;47.200;9.748;2023-04-03T05:18:04;7.53;;;6.73;;
49175;SDS011;35012;47.200;9.748;2023-04-03T05:20:30;7.43;;;6.53;;
49175;SDS011;35012;47.200;9.748;2023-04-03T05:22:56;7.93;;;6.77;;
49175;SDS011;35012;47.200;9.748;2023-04-03T05:25:21;7.50;;;6.80;;
49175;SDS011;35012;47.200;9.748;2023-04-03T05:27:47;7.57;;;6.87;;
49175;SDS011;35012;47.200;9.748;2023-04-03T05:30:13;8.77;;;7.73;;
49175;SDS011;35012;47.200;9.748;2023-04-03T05:32:38;8.67;;;6.97;;
49175;SDS011;35012;47.200;9.748;2023-04-03T05:35:05;7.90;;;7.10;;
49175;SDS011;35012;47.200;9.748;2023-04-03T05:37:31;7.20;;;6.50;;
49175;SDS011;35012;47.200;9.748;2023-04-03T05:39:56;8.70;;;7.03;;
49175;SDS011;35012;47.200;9.748;2023-04-03T05:42:22;8.60;;;7.70;;
49175;SDS011;35012;47.200;9.748;2023-04-03T05:44:48;9.03;;;7.27;;
49175;SDS011;35012;47.200;9.748;2023-04-03T05:47:15;8.40;;;7.43;;
49175;SDS011;35012;47.200;9.748;2023-04-03T05:49:41;8.23;;;7.43;;
49175;SDS011;35012;47.200;9.748;2023-04-03T05:52:40;8.00;;;7.20;;
49175;SDS011;35012;47.200;9.748;2023-04-03T05:55:00;8.43;;;7.20;;
49175;SDS011;35012;47.200;9.748;2023-04-03T05:57:25;8.07;;;7.20;;
49175;SDS011;35012;47.200;9.748;2023-04-03T05:59:51;8.23;;;7.43;;
49175;SDS011;35012;47.200;9.748;2023-04-03T06:02:20;8.73;;;7.83;;
49175;SDS011;35012;47.200;9.748;2023-04-03T06:04:46;8.90;;;8.00;;
49175;SDS011;35012;47.200;9.748;2023-04-03T06:07:16;8.67;;;7.77;;
49175;SDS011;35012;47.200;9.748;2023-04-03T06:09:44;9.07;;;8.17;;
49175;SDS011;35012;47.200;9.748;2023-04-03T06:12:10;8.67;;;7.77;;
49175;SDS011;35012;47.200;9.748;2023-04-03T06:14:36;8.23;;;7.43;;
49175;SDS011;35012;47.200;9.748;2023-04-03T06:17:02;9.80;;;8.53;;
49175;SDS011;35012;47.200;9.748;2023-04-03T06:19:28;9.60;;;8.60;;
49175;SDS011;35012;47.200;9.748;2023-04-03T06:21:53;11.53;;;8.17;;
49175;SDS011;35012;47.200;9.748;2023-04-03T06:24:19;10.47;;;8.67;;
49175;SDS011;35012;47.200;9.748;2023-04-03T06:26:46;8.10;;;7.30;;
49175;SDS011;35012;47.200;9.748;2023-04-03T06:29:12;11.33;;;8.40;;
49175;SDS011;35012;47.200;9.748;2023-04-03T06:31:37;9.33;;;8.33;;
49175;SDS011;35012;47.200;9.748;2023-04-03T06:34:03;10.23;;;8.50;;
49175;SDS011;35012;47.200;9.748;2023-04-03T06:36:30;9.97;;;8.83;;
49175;SDS011;35012;47.200;9.748;2023-04-03T06:38:56;9.87;;;8.87;;
49175;SDS011;35012;47.200;9.748;2023-04-03T06:41:22;9.97;;;8.73;;
49175;SDS011;35012;47.200;9.748;2023-04-03T06:43:47;10.57;;;9.47;;
49175;SDS011;35012;47.200;9.748;2023-04-03T06:46:14;11.27;;;8.73;;
49175;SDS011;35012;47.200;9.748;2023-04-03T06:48:40;11.00;;;9.77;;
49175;SDS011;35012;47.200;9.748;2023-04-03T06:51:06;11.97;;;10.77;;
49175;SDS011;35012;47.200;9.748;2023-04-03T06:53:33;11.00;;;9.90;;
49175;SDS011;35012;47.200;9.748;2023-04-03T06:55:59;10.37;;;9.33;;
49175;SDS011;35012;47.200;9.748;2023-04-03T06:58:24;10.43;;;9.33;;
49175;SDS011;35012;47.200;9.748;2023-04-03T07:00:50;10.27;;;9.27;;
49175;SDS011;35012;47.200;9.748;2023-04-03T07:03:15;11.70;;;9.40;;
49175;SDS011;35012;47.200;9.748;2023-04-03T07:05:41;10.33;;;9.27;;
49175;SDS011;35012;47.200;9.748;2023-04-03T07:08:09;11.30;;;10.10;;
49175;SDS011;35012;47.200;9.748;2023-04-03T07:10:34;10.90;;;9.20;;
49175;SDS011;35012;47.200;9.748;2023-04-03T07:13:00;10.67;;;9.40;;
49175;SDS011;35012;47.200;9.748;2023-04-03T07:15:26;10.47;;;9.37;;
49175;SDS011;35012;47.200;9.748;2023-04-03T07:17:52;9.77;;;8.77;;
49175;SDS011;35012;47.200;9.748;2023-04-03T07:20:17;10.70;;;9.60;;
49175;SDS011;35012;47.200;9.748;2023-04-03T07:22:43;10.00;;;8.77;;
49175;SDS011;35012;47.200;9.748;2023-04-03T07:25:08;10.07;;;9.07;;
49175;SDS011;35012;47.200;9.748;2023-04-03T07:27:35;10.20;;;9.10;;
49175;SDS011;35012;47.200;9.748;2023-04-03T07:30:01;10.20;;;8.90;;
49175;SDS011;35012;47.200;9.748;2023-04-03T07:32:28;9.90;;;8.90;;
49175;SDS011;35012;47.200;9.748;2023-04-03T07:34:54;11.17;;;9.97;;
49175;SDS011;35012;47.200;9.748;2023-04-03T07:37:20;10.50;;;8.90;;
49175;SDS011;35012;47.200;9.748;2023-04-03T07:39:46;10.80;;;8.90;;
49175;SDS011;35012;47.200;9.748;2023-04-03T07:42:11;9.80;;;8.80;;
49175;SDS011;35012;47.200;9.748;2023-04-03T07:44:38;10.57;;;9.20;;
49175;SDS011;35012;47.200;9.748;2023-04-03T07:47:03;9.00;;;8.13;;
49175;SDS011;35012;47.200;9.748;2023-04-03T07:49:29;10.17;;;9.17;;
49175;SDS011;35012;47.200;9.748;2023-04-03T07:51:56;12.03;;;8.63;;
49175;SDS011;35012;47.200;9.748;2023-04-03T07:54:22;10.40;;;8.50;;
49175;SDS011;35012;47.200;9.748;2023-04-03T07:56:47;9.13;;;8.27;;
49175;SDS011;35012;47.200;9.748;2023-04-03T07:59:13;9.13;;;8.23;;
49175;SDS011;35012;47.200;9.748;2023-04-03T08:01:38;9.90;;;8.90;;
49175;SDS011;35012;47.200;9.748;2023-04-03T08:04:04;10.20;;;9.00;;
49175;SDS011;35012;47.200;9.748;2023-04-03T08:06:30;10.30;;;9.20;;
49175;SDS011;35012;47.200;9.748;2023-04-03T08:08:57;10.87;;;9.20;;
49175;SDS011;35012;47.200;9.748;2023-04-03T08:11:23;10.03;;;9.03;;
49175;SDS011;35012;47.200;9.748;2023-04-03T08:13:51;9.77;;;8.77;;
49175;SDS011;35012;47.200;9.748;2023-04-03T08:16:18;9.83;;;8.83;;
49175;SDS011;35012;47.200;9.748;2023-04-03T08:18:46;9.30;;;8.40;;
49175;SDS011;35012;47.200;9.748;2023-04-03T08:21:12;9.30;;;8.20;;
49175;SDS011;35012;47.200;9.748;2023-04-03T08:23:38;10.90;;;9.17;;
49175;SDS011;35012;47.200;9.748;2023-04-03T08:26:07;8.93;;;8.03;;
49175;SDS011;35012;47.200;9.748;2023-04-03T08:28:38;9.43;;;8.40;;
49175;SDS011;35012;47.200;9.748;2023-04-03T08:31:04;10.87;;;8.87;;
49175;SDS011;35012;47.200;9.748;2023-04-03T08:33:31;10.53;;;8.73;;
49175;SDS011;35012;47.200;9.748;2023-04-03T08:35:57;9.93;;;8.37;;
49175;SDS011;35012;47.200;9.748;2023-04-03T08:38:23;9.33;;;8.43;;
49175;SDS011;35012;47.200;9.748;2023-04-03T08:41:00;8.60;;;7.77;;
49175;SDS011;35012;47.200;9.748;2023-04-03T08:43:34;8.30;;;7.50;;
49175;SDS011;35012;47.200;9.748;2023-04-03T08:46:11;9.50;;;8.50;;
49175;SDS011;35012;47.200;9.748;2023-04-03T08:48:41;10.00;;;7.70;;
49175;SDS011;35012;47.200;9.748;2023-04-03T08:51:13;8.67;;;7.83;;
49175;SDS011;35012;47.200;9.748;2023-04-03T08:53:42;12.27;;;8.47;;
49175;SDS011;35012;47.200;9.748;2023-04-03T08:56:13;9.17;;;7.67;;
49175;SDS011;35012;47.200;9.748;2023-04-03T08:58:52;10.23;;;7.60;;
49175;SDS011;35012;47.200;9.748;2023-04-03T09:01:27;9.27;;;8.07;;
49175;SDS011;35012;47.200;9.748;2023-04-03T09:04:00;9.93;;;7.77;;
49175;SDS011;35012;47.200;9.748;2023-04-03T09:06:28;8.67;;;7.40;;
49175;SDS011;35012;47.200;9.748;2023-04-03T09:14:18;9.93;;;8.90;;
49175;SDS011;35012;47.200;9.748;2023-04-03T09:16:59;9.60;;;8.23;;
49175;SDS011;35012;47.200;9.748;2023-04-03T09:24:37;9.00;;;7.40;;
49175;SDS011;35012;47.200;9.748;2023-04-03T09:27:04;9.13;;;7.83;;
49175;SDS011;35012;47.200;9.748;2023-04-03T09:29:39;11.90;;;8.93;;
49175;SDS011;35012;47.200;9.748;2023-04-03T09:34:54;9.27;;;7.70;;
49175;SDS011;35012;47.200;9.748;2023-04-03T09:42:57;8.37;;;7.43;;
49175;SDS011;35012;47.200;9.748;2023-04-03T09:50:32;7.80;;;7.00;;
49175;SDS011;35012;47.200;9.748;2023-04-03T09:52:58;7.90;;;7.10;;
49175;SDS011;35012;47.200;9.748;2023-04-03T09:55:25;7.97;;;6.77;;
49175;SDS011;35012;47.200;9.748;2023-04-03T09:57:57;7.37;;;6.67;;
49175;SDS011;35012;47.200;9.748;2023-04-03T10:03:03;8.43;;;6.57;;
49175;SDS011;35012;47.200;9.748;2023-04-03T10:05:39;7.03;;;6.33;;
49175;SDS011;35012;47.200;9.748;2023-04-03T10:10:38;8.77;;;6.07;;
49175;SDS011;35012;47.200;9.748;2023-04-03T10:13:09;6.60;;;5.97;;
49175;SDS011;35012;47.200;9.748;2023-04-03T10:15:39;7.40;;;6.63;;
49175;SDS011;35012;47.200;9.748;2023-04-03T10:18:22;8.03;;;6.70;;
49175;SDS011;35012;47.200;9.748;2023-04-03T10:23:50;7.00;;;6.30;;
49175;SDS011;35012;47.200;9.748;2023-04-03T10:26:23;7.77;;;6.90;;
49175;SDS011;35012;47.200;9.748;2023-04-03T10:34:46;6.90;;;6.20;;
49175;SDS011;35012;47.200;9.748;2023-04-03T10:37:17;7.57;;;6.47;;
49175;SDS011;35012;47.200;9.748;2023-04-03T10:45:31;7.40;;;6.00;;
49175;SDS011;35012;47.200;9.748;2023-04-03T10:48:37;7.60;;;5.53;;
49175;SDS011;35012;47.200;9.748;2023-04-03T10:54:00;6.93;;;6.23;;
49175;SDS011;35012;47.200;9.748;2023-04-03T10:56:42;6.93;;;5.70;;
49175;SDS011;35012;47.200;9.748;2023-04-03T11:02:17;6.40;;;5.67;;
49175;SDS011;35012;47.200;9.748;2023-04-03T11:04:59;6.37;;;5.77;;
49175;SDS011;35012;47.200;9.748;2023-04-03T11:07:28;6.53;;;5.40;;
49175;SDS011;35012;47.200;9.748;2023-04-03T11:10:13;6.10;;;5.50;;
49175;SDS011;35012;47.200;9.748;2023-04-03T11:15:15;7.60;;;6.07;;
49175;SDS011;35012;47.200;9.748;2023-04-03T11:17:47;9.07;;;6.80;;
49175;SDS011;35012;47.200;9.748;2023-04-03T11:20:42;10.40;;;7.63;;
49175;SDS011;35012;47.200;9.748;2023-04-03T11:23:22;6.70;;;5.83;;
49175;SDS011;35012;47.200;9.748;2023-04-03T11:25:50;7.33;;;6.50;;
49175;SDS011;35012;47.200;9.748;2023-04-03T11:28:17;6.57;;;5.30;;
49175;SDS011;35012;47.200;9.748;2023-04-03T11:36:41;5.30;;;4.70;;
49175;SDS011;35012;47.200;9.748;2023-04-03T11:39:20;5.13;;;4.63;;
49175;SDS011;35012;47.200;9.748;2023-04-03T11:41:49;5.73;;;4.83;;
49175;SDS011;35012;47.200;9.748;2023-04-03T11:46:58;7.13;;;4.80;;
49175;SDS011;35012;47.200;9.748;2023-04-03T12:05:54;4.90;;;4.40;;
49175;SDS011;35012;47.200;9.748;2023-04-03T12:08:25;4.90;;;4.30;;
49175;SDS011;35012;47.200;9.748;2023-04-03T12:21:14;5.20;;;4.70;;
49175;SDS011;35012;47.200;9.748;2023-04-03T12:29:24;4.77;;;4.37;;
49175;SDS011;35012;47.200;9.748;2023-04-03T12:46:17;7.73;;;6.33;;
49175;SDS011;35012;47.200;9.748;2023-04-03T12:48:48;7.53;;;5.80;;
49175;SDS011;35012;47.200;9.748;2023-04-03T12:51:40;5.13;;;4.63;;
49175;SDS011;35012;47.200;9.748;2023-04-03T12:56:43;4.97;;;4.47;;
49175;SDS011;35012;47.200;9.748;2023-04-03T12:59:22;7.03;;;6.23;;
49175;SDS011;35012;47.200;9.748;2023-04-03T13:01:53;7.67;;;6.00;;
49175;SDS011;35012;47.200;9.748;2023-04-03T13:04:23;5.93;;;5.00;;
49175;SDS011;35012;47.200;9.748;2023-04-03T13:06:49;7.17;;;5.33;;
49175;SDS011;35012;47.200;9.748;2023-04-03T13:09:23;5.03;;;4.33;;
49175;SDS011;35012;47.200;9.748;2023-04-03T13:14:26;6.37;;;4.47;;
49175;SDS011;35012;47.200;9.748;2023-04-03T13:17:12;4.83;;;4.30;;
49175;SDS011;35012;47.200;9.748;2023-04-03T13:19:40;5.17;;;4.67;;
49175;SDS011;35012;47.200;9.748;2023-04-03T13:24:52;5.20;;;4.70;;
49175;SDS011;35012;47.200;9.748;2023-04-03T13:27:19;5.00;;;4.40;;
49175;SDS011;35012;47.200;9.748;2023-04-03T13:29:49;4.80;;;4.40;;
49175;SDS011;35012;47.200;9.748;2023-04-03T13:32:18;4.67;;;4.13;;
49175;SDS011;35012;47.200;9.748;2023-04-03T13:34:46;4.67;;;4.03;;
49175;SDS011;35012;47.200;9.748;2023-04-03T13:37:20;5.67;;;3.77;;
49175;SDS011;35012;47.200;9.748;2023-04-03T13:39:56;6.60;;;3.87;;
49175;SDS011;35012;47.200;9.748;2023-04-03T13:42:24;4.60;;;4.20;;
49175;SDS011;35012;47.200;9.748;2023-04-03T13:45:16;4.83;;;4.00;;
49175;SDS011;35012;47.200;9.748;2023-04-03T13:47:51;5.27;;;3.77;;
49175;SDS011;35012;47.200;9.748;2023-04-03T13:50:23;4.87;;;4.30;;
49175;SDS011;35012;47.200;9.748;2023-04-03T13:53:00;4.47;;;4.07;;
49175;SDS011;35012;47.200;9.748;2023-04-03T13:55:32;4.70;;;4.00;;
49175;SDS011;35012;47.200;9.748;2023-04-03T13:58:16;4.33;;;3.90;;
49175;SDS011;35012;47.200;9.748;2023-04-03T14:00:52;3.67;;;3.37;;
49175;SDS011;35012;47.200;9.748;2023-04-03T14:03:29;3.87;;;3.47;;
49175;SDS011;35012;47.200;9.748;2023-04-03T14:05:57;3.80;;;3.50;;
49175;SDS011;35012;47.200;9.748;2023-04-03T14:08:24;3.87;;;3.47;;
49175;SDS011;35012;47.200;9.748;2023-04-03T14:10:49;3.83;;;3.37;;
49175;SDS011;35012;47.200;9.748;2023-04-03T14:13:16;3.47;;;3.13;;
49175;SDS011;35012;47.200;9.748;2023-04-03T14:15:44;3.87;;;3.10;;
49175;SDS011;35012;47.200;9.748;2023-04-03T14:18:13;3.00;;;2.80;;
49175;SDS011;35012;47.200;9.748;2023-04-03T14:20:41;4.27;;;2.90;;
49175;SDS011;35012;47.200;9.748;2023-04-03T14:23:06;3.27;;;2.97;;
49175;SDS011;35012;47.200;9.748;2023-04-03T14:25:32;3.60;;;2.80;;
49175;SDS011;35012;47.200;9.748;2023-04-03T14:27:59;3.70;;;2.53;;
49175;SDS011;35012;47.200;9.748;2023-04-03T14:30:26;2.70;;;2.50;;
49175;SDS011;35012;47.200;9.748;2023-04-03T14:32:53;2.80;;;2.50;;
49175;SDS011;35012;47.200;9.748;2023-04-03T14:35:20;2.93;;;2.43;;
49175;SDS011;35012;47.200;9.748;2023-04-03T14:37:46;2.43;;;2.23;;
49175;SDS011;35012;47.200;9.748;2023-04-03T14:40:13;2.50;;;2.20;;
49175;SDS011;35012;47.200;9.748;2023-04-03T14:42:43;2.60;;;2.33;;
49175;SDS011;35012;47.200;9.748;2023-04-03T14:45:09;4.27;;;2.67;;
49175;SDS011;35012;47.200;9.748;2023-04-03T14:47:39;4.37;;;2.93;;
49175;SDS011;35012;47.200;9.748;2023-04-03T14:50:10;3.03;;;2.73;;
49175;SDS011;35012;47.200;9.748;2023-04-03T14:52:39;3.23;;;2.30;;
49175;SDS011;35012;47.200;9.748;2023-04-03T14:55:05;3.80;;;3.20;;
49175;SDS011;35012;47.200;9.748;2023-04-03T14:57:31;3.87;;;2.30;;
49175;SDS011;35012;47.200;9.748;2023-04-03T14:59:57;4.30;;;3.90;;
49175;SDS011;35012;47.200;9.748;2023-04-03T15:04:55;3.03;;;2.73;;
49175;SDS011;35012;47.200;9.748;2023-04-03T15:07:22;3.50;;;3.20;;
49175;SDS011;35012;47.200;9.748;2023-04-03T15:09:48;3.87;;;2.43;;
49175;SDS011;35012;47.200;9.748;2023-04-03T15:12:14;2.97;;;2.47;;
49175;SDS011;35012;47.200;9.748;2023-04-03T15:14:40;3.27;;;2.93;;
49175;SDS011;35012;47.200;9.748;2023-04-03T15:17:05;2.93;;;2.50;;
49175;SDS011;35012;47.200;9.748;2023-04-03T15:19:38;5.57;;;2.80;;
49175;SDS011;35012;47.200;9.748;2023-04-03T15:22:04;3.37;;;2.60;;
49175;SDS011;35012;47.200;9.748;2023-04-03T15:24:30;3.23;;;2.80;;
49175;SDS011;35012;47.200;9.748;2023-04-03T15:26:55;3.37;;;2.70;;
49175;SDS011;35012;47.200;9.748;2023-04-03T15:29:21;2.57;;;2.37;;
49175;SDS011;35012;47.200;9.748;2023-04-03T15:31:46;3.43;;;2.80;;
49175;SDS011;35012;47.200;9.748;2023-04-03T15:34:12;3.47;;;2.80;;
49175;SDS011;35012;47.200;9.748;2023-04-03T15:36:37;2.80;;;2.60;;
49175;SDS011;35012;47.200;9.748;2023-04-03T15:39:03;4.10;;;2.53;;
49175;SDS011;35012;47.200;9.748;2023-04-03T15:41:28;4.07;;;2.70;;
49175;SDS011;35012;47.200;9.748;2023-04-03T15:43:54;3.40;;;2.97;;
49175;SDS011;35012;47.200;9.748;2023-04-03T15:46:19;4.50;;;2.80;;
49175;SDS011;35012;47.200;9.748;2023-04-03T15:48:45;2.60;;;2.40;;
49175;SDS011;35012;47.200;9.748;2023-04-03T15:51:11;3.33;;;3.00;;
49175;SDS011;35012;47.200;9.748;2023-04-03T15:53:36;2.90;;;2.60;;
49175;SDS011;35012;47.200;9.748;2023-04-03T15:56:02;3.10;;;2.80;;
49175;SDS011;35012;47.200;9.748;2023-04-03T15:58:29;4.40;;;3.23;;
49175;SDS011;35012;47.200;9.748;2023-04-03T16:00:55;3.20;;;2.90;;
49175;SDS011;35012;47.200;9.748;2023-04-03T16:03:20;3.83;;;3.37;;
49175;SDS011;35012;47.200;9.748;2023-04-03T16:05:47;3.87;;;3.10;;
49175;SDS011;35012;47.200;9.748;2023-04-03T16:08:14;3.97;;;3.20;;
49175;SDS011;35012;47.200;9.748;2023-04-03T16:10:40;3.67;;;2.60;;
49175;SDS011;35012;47.200;9.748;2023-04-03T16:13:05;4.07;;;3.03;;
49175;SDS011;35012;47.200;9.748;2023-04-03T16:15:31;3.93;;;3.00;;
49175;SDS011;35012;47.200;9.748;2023-04-03T16:17:58;7.43;;;3.17;;
49175;SDS011;35012;47.200;9.748;2023-04-03T16:20:24;4.07;;;2.80;;
49175;SDS011;35012;47.200;9.748;2023-04-03T16:22:50;4.13;;;3.47;;
49175;SDS011;35012;47.200;9.748;2023-04-03T16:25:16;3.90;;;3.00;;
49175;SDS011;35012;47.200;9.748;2023-04-03T16:27:42;3.83;;;2.90;;
49175;SDS011;35012;47.200;9.748;2023-04-03T16:30:09;4.63;;;2.90;;
49175;SDS011;35012;47.200;9.748;2023-04-03T16:32:35;3.23;;;2.90;;
49175;SDS011;35012;47.200;9.748;2023-04-03T16:35:01;5.27;;;2.80;;
49175;SDS011;35012;47.200;9.748;2023-04-03T16:37:27;3.07;;;2.77;;
49175;SDS011;35012;47.200;9.748;2023-04-03T16:39:52;3.57;;;3.07;;
49175;SDS011;35012;47.200;9.748;2023-04-03T16:42:18;3.13;;;2.83;;
49175;SDS011;35012;47.200;9.748;2023-04-03T16:44:43;4.60;;;3.20;;
49175;SDS011;35012;47.200;9.748;2023-04-03T16:47:09;4.27;;;3.00;;
49175;SDS011;35012;47.200;9.748;2023-04-03T16:49:35;3.43;;;3.00;;
49175;SDS011;35012;47.200;9.748;2023-04-03T16:52:02;4.50;;;2.80;;
49175;SDS011;35012;47.200;9.748;2023-04-03T16:54:28;5.03;;;3.40;;
49175;SDS011;35012;47.200;9.748;2023-04-03T16:56:54;4.50;;;3.37;;
49175;SDS011;35012;47.200;9.748;2023-04-03T16:59:20;3.23;;;2.93;;